Time;durP1;ratioP1;P1;durP2;ratioP2;P2;SDS_P1;SDS_P2;PMS_P1;PMS_P2;Temp;Humidity;BMP_temperature;BMP_pressure;BME280_temperature;BME280_humidity;BME280_pressure;Samples;Min_cycle;Max_cycle;Signal;HPM_P1;HPM_P2
2023/05/28 00:00:08;;;;;;;20.90;12.05;;;;;;;14.98;63.26;101893.16;5073506;28;20051;-66
2023/05/28 00:02:33;;;;;;;17.35;11.32;;;;;;;14.99;62.99;101891.31;5074206;28;20040;-67
2023/05/28 00:05:00;;;;;;;16.50;11.80;;;;;;;15.01;63.47;101905.50;5073830;28;20024;-67
2023/05/28 00:07:28;;;;;;;17.83;11.93;;;;;;;14.96;63.39;101895.06;5073621;28;20027;-66
2023/05/28 00:09:53;;;;;;;17.10;11.30;;;;;;;14.82;63.97;101896.91;5073111;28;20448;-67
2023/05/28 00:12:19;;;;;;;16.40;11.90;;;;;;;14.95;63.84;101903.22;5093559;28;20048;-66
2023/05/28 00:14:46;;;;;;;18.27;12.40;;;;;;;14.87;63.84;101897.47;5093432;28;20111;-66
2023/05/28 00:17:12;;;;;;;18.80;11.73;;;;;;;14.58;64.62;101894.84;5081524;28;20391;-67
2023/05/28 00:19:40;;;;;;;19.77;11.98;;;;;;;14.79;64.38;101884.56;5072450;28;20033;-66
2023/05/28 00:22:06;;;;;;;20.75;13.43;;;;;;;14.70;64.78;101882.47;5073972;28;20207;-67
2023/05/28 00:24:31;;;;;;;19.45;12.82;;;;;;;14.52;65.30;101882.69;5073454;28;20554;-66
2023/05/28 00:26:57;;;;;;;17.17;12.10;;;;;;;14.50;65.14;101879.25;5069261;28;20701;-67
2023/05/28 00:29:24;;;;;;;19.80;12.73;;;;;;;14.44;65.50;101882.31;5069130;28;20036;-67
2023/05/28 00:31:54;;;;;;;20.83;12.55;;;;;;;14.30;66.23;101884.97;5071614;28;20111;-67
2023/05/28 00:34:20;;;;;;;18.83;12.73;;;;;;;14.34;66.11;101886.50;5073344;28;20070;-67
2023/05/28 00:36:45;;;;;;;20.02;12.75;;;;;;;14.16;66.74;101883.16;5073049;28;20036;-66
2023/05/28 00:39:11;;;;;;;19.15;11.27;;;;;;;14.26;66.44;101876.25;5072146;28;20029;-67
2023/05/28 00:41:36;;;;;;;25.33;13.05;;;;;;;14.22;66.75;101888.13;5105872;28;20533;-66
2023/05/28 00:44:03;;;;;;;17.77;12.15;;;;;;;14.19;66.79;101899.00;5073287;28;20739;-67
2023/05/28 00:46:28;;;;;;;18.83;13.05;;;;;;;14.20;66.96;101900.72;5078418;28;20028;-66
2023/05/28 00:48:56;;;;;;;23.65;12.55;;;;;;;14.28;66.73;101902.94;5072982;28;20086;-67
2023/05/28 00:51:21;;;;;;;17.52;12.35;;;;;;;14.13;67.14;101894.03;5071617;28;20048;-66
2023/05/28 00:53:47;;;;;;;21.20;13.15;;;;;;;14.00;67.24;101901.06;5072988;28;20058;-67
2023/05/28 00:56:13;;;;;;;20.30;12.45;;;;;;;14.17;66.63;101886.69;5072731;28;20028;-67
2023/05/28 00:58:39;;;;;;;19.20;12.68;;;;;;;14.13;67.16;101894.03;5072976;28;20407;-67
2023/05/28 01:01:09;;;;;;;21.63;13.48;;;;;;;14.18;67.00;101885.75;5073287;28;20031;-66
2023/05/28 01:03:39;;;;;;;17.50;12.55;;;;;;;14.13;67.15;101888.69;5091933;28;20016;-66
2023/05/28 01:06:11;;;;;;;18.63;12.88;;;;;;;14.09;67.44;101888.03;5089462;28;20051;-67
2023/05/28 01:08:40;;;;;;;19.60;12.13;;;;;;;14.08;67.03;101877.41;5071513;28;20028;-67
2023/05/28 01:11:08;;;;;;;;;;;;;;;14.42;64.46;101883.34;5055338;28;20024;-66
2023/05/28 01:13:35;;;;;;;21.73;13.30;;;;;;;14.01;67.09;101884.09;5072348;28;20053;-67
2023/05/28 01:16:00;;;;;;;21.65;14.40;;;;;;;13.94;67.37;101872.91;5070226;28;20055;-67
2023/05/28 01:18:27;;;;;;;18.40;13.52;;;;;;;13.82;67.71;101879.88;5075149;28;20115;-67
2023/05/28 01:20:55;;;;;;;19.77;12.73;;;;;;;13.92;67.56;101887.31;5091741;28;20081;-66
2023/05/28 01:23:23;;;;;;;23.60;13.45;;;;;;;13.84;67.74;101877.94;5091169;28;20028;-67
2023/05/28 01:25:52;;;;;;;20.35;13.10;;;;;;;13.76;68.23;101880.19;5072126;28;20027;-67
2023/05/28 01:28:21;;;;;;;23.95;13.32;;;;;;;13.72;68.43;101873.34;5072284;28;20042;-66
2023/05/28 01:30:47;;;;;;;23.38;12.88;;;;;;;13.80;67.85;101884.44;5070628;28;20012;-67
2023/05/28 01:33:13;;;;;;;22.00;13.40;;;;;;;13.59;69.02;101888.41;5070883;28;20060;-67
2023/05/28 01:35:40;;;;;;;17.13;13.85;;;;;;;13.64;68.92;101892.50;5076408;28;20062;-66
2023/05/28 01:38:07;;;;;;;19.60;14.10;;;;;;;13.59;68.86;101891.94;5091326;28;20039;-67
2023/05/28 01:40:34;;;;;;;21.02;13.13;;;;;;;13.35;69.93;101883.53;5091122;28;20748;-66
2023/05/28 01:43:01;;;;;;;18.63;13.52;;;;;;;13.46;69.45;101887.38;5092253;28;20032;-66
2023/05/28 01:45:30;;;;;;;21.40;14.35;;;;;;;13.40;69.70;101880.56;5075176;28;20471;-66
2023/05/28 01:47:55;;;;;;;21.85;14.15;;;;;;;13.50;69.62;101886.22;5071008;28;20054;-67
2023/05/28 01:50:21;;;;;;;20.92;13.73;;;;;;;13.41;69.96;101892.97;5070677;28;20706;-66
2023/05/28 01:52:47;;;;;;;21.27;14.65;;;;;;;13.29;70.53;101886.53;5078819;28;20452;-66
2023/05/28 01:55:13;;;;;;;18.88;13.15;;;;;;;13.45;69.89;101886.53;5072387;28;20115;-66
2023/05/28 01:57:39;;;;;;;21.33;13.50;;;;;;;13.33;70.26;101892.59;5070733;28;20028;-66
2023/05/28 02:00:09;;;;;;;27.17;13.77;;;;;;;13.19;70.91;101893.34;5071499;28;20073;-66
2023/05/28 02:02:37;;;;;;;21.60;13.63;;;;;;;13.27;71.02;101876.91;5070587;28;20028;-66
2023/05/28 02:05:03;;;;;;;17.13;13.30;;;;;;;13.33;70.97;101879.22;5069553;28;20487;-66
2023/05/28 02:07:29;;;;;;;23.05;14.27;;;;;;;13.35;71.01;101880.88;5085512;28;20119;-67
2023/05/28 02:09:55;;;;;;;23.20;13.45;;;;;;;13.32;71.40;101883.69;5070276;28;20540;-66
2023/05/28 02:12:20;;;;;;;20.77;13.68;;;;;;;13.42;71.16;101877.84;5070729;28;20029;-67
2023/05/28 02:14:48;;;;;;;20.60;14.20;;;;;;;13.21;71.14;101879.88;5069074;28;20442;-66
2023/05/28 02:17:17;;;;;;;20.67;13.05;;;;;;;13.23;72.13;101875.31;5054781;28;20071;-67
2023/05/28 02:19:43;;;;;;;20.02;13.95;;;;;;;13.24;72.00;101874.38;5051580;28;20495;-67
2023/05/28 02:22:11;;;;;;;19.85;13.30;;;;;;;13.31;71.77;101863.28;5061938;28;20028;-66
2023/05/28 02:24:40;;;;;;;19.52;13.88;;;;;;;13.10;71.93;101861.81;5069765;28;20028;-66
2023/05/28 02:27:07;;;;;;;19.88;13.32;;;;;;;13.13;72.28;101857.16;5080878;28;20490;-67
2023/05/28 02:29:33;;;;;;;20.67;13.27;;;;;;;13.20;72.42;101863.00;5077191;28;20508;-67
2023/05/28 02:32:00;;;;;;;23.55;14.38;;;;;;;13.12;73.32;101862.59;5062750;28;20032;-66
2023/05/28 02:34:25;;;;;;;23.25;14.18;;;;;;;13.06;73.27;101853.13;5073742;28;20028;-66
2023/05/28 02:36:52;;;;;;;21.63;13.80;;;;;;;13.19;72.52;101858.63;5074225;28;20024;-67
2023/05/28 02:39:18;;;;;;;21.95;13.98;;;;;;;12.98;72.84;101855.38;5075476;28;20033;-66
2023/05/28 02:41:43;;;;;;;21.05;13.40;;;;;;;13.10;72.72;101860.00;5075447;28;20035;-67
2023/05/28 02:44:09;;;;;;;23.85;13.77;;;;;;;13.15;72.42;101867.75;5084536;28;20031;-67
2023/05/28 02:46:34;;;;;;;20.92;13.75;;;;;;;13.14;72.45;101868.69;5094509;28;20506;-67
2023/05/28 02:48:59;;;;;;;18.98;13.63;;;;;;;13.21;72.09;101861.19;5095659;28;20024;-67
2023/05/28 02:51:25;;;;;;;19.33;13.57;;;;;;;13.05;72.56;101870.06;5089596;28;20036;-67
2023/05/28 02:53:50;;;;;;;19.30;12.68;;;;;;;13.07;72.03;101865.53;5072905;28;20531;-66
2023/05/28 02:56:16;;;;;;;19.80;13.73;;;;;;;12.98;72.34;101863.38;5065491;28;20488;-67
2023/05/28 02:58:41;;;;;;;19.60;13.07;;;;;;;13.12;72.01;101866.13;5105373;28;20472;-67
2023/05/28 03:01:07;;;;;;;20.65;13.52;;;;;;;13.02;72.19;101856.03;5095329;28;20040;-67
2023/05/28 03:03:32;;;;;;;18.40;12.80;;;;;;;12.90;72.77;101868.28;5070092;28;20052;-67
2023/05/28 03:05:57;;;;;;;19.02;12.95;;;;;;;12.90;71.94;101870.97;5107883;28;20490;-67
2023/05/28 03:08:23;;;;;;;18.48;13.55;;;;;;;12.96;72.26;101878.63;5068629;28;20028;-67
2023/05/28 03:10:48;;;;;;;18.95;12.73;;;;;;;12.94;72.35;101872.50;5073688;28;20020;-67
2023/05/28 03:13:14;;;;;;;22.02;14.07;;;;;;;12.74;72.73;101860.28;5074086;28;20032;-66
2023/05/28 03:15:39;;;;;;;16.65;12.23;;;;;;;12.82;72.13;101860.69;5072159;28;20043;-66
2023/05/28 03:18:05;;;;;;;18.95;12.60;;;;;;;12.68;72.88;101858.81;5059190;28;21265;-66
2023/05/28 03:20:30;;;;;;;21.33;13.02;;;;;;;12.80;72.59;101867.09;5073782;28;20027;-66
2023/05/28 03:22:56;;;;;;;19.70;13.02;;;;;;;12.73;73.12;101867.44;5072722;28;20136;-66
2023/05/28 03:25:23;;;;;;;24.42;13.60;;;;;;;12.56;73.62;101863.94;5072011;28;20037;-67
2023/05/28 03:27:48;;;;;;;18.40;13.10;;;;;;;12.50;74.04;101866.03;5074094;28;20111;-67
2023/05/28 03:30:14;;;;;;;19.50;12.95;;;;;;;12.43;74.56;101864.63;5063100;28;20411;-67
2023/05/28 03:32:40;;;;;;;21.60;12.82;;;;;;;12.36;74.89;101865.06;5058899;28;20032;-66
2023/05/28 03:35:06;;;;;;;22.52;12.90;;;;;;;12.46;74.25;101859.13;5060089;28;20028;-66
2023/05/28 03:37:31;;;;;;;18.00;12.02;;;;;;;12.42;74.55;101856.72;5104964;28;20399;-66
2023/05/28 03:39:57;;;;;;;20.92;12.98;;;;;;;12.39;75.00;101864.91;5087151;28;20115;-66
2023/05/28 03:42:22;;;;;;;20.05;12.75;;;;;;;12.44;74.73;101868.16;5056045;28;20028;-66
2023/05/28 03:44:48;;;;;;;20.58;12.32;;;;;;;12.45;74.32;101867.22;5051354;28;20029;-66
2023/05/28 03:47:13;;;;;;;17.73;13.15;;;;;;;12.51;74.25;101872.22;5054274;28;20028;-67
2023/05/28 03:49:38;;;;;;;19.13;12.52;;;;;;;12.47;73.45;101874.22;5054220;28;20024;-67
2023/05/28 03:52:04;;;;;;;18.55;11.90;;;;;;;12.57;74.02;101874.56;5058382;28;20553;-67
2023/05/28 03:54:32;;;;;;;20.92;12.45;;;;;;;12.37;74.05;101877.44;5072792;28;20028;-67
2023/05/28 03:56:58;;;;;;;21.25;12.77;;;;;;;12.33;74.57;101878.56;5103710;28;20036;-67
2023/05/28 03:59:25;;;;;;;20.10;12.25;;;;;;;12.31;75.28;101891.13;5064578;28;20365;-66
2023/05/28 04:01:51;;;;;;;18.33;13.20;;;;;;;12.35;75.77;101880.19;5056135;28;20056;-67
2023/05/28 04:04:16;;;;;;;28.95;13.02;;;;;;;12.43;75.37;101880.63;5071874;28;20467;-67
2023/05/28 04:06:42;;;;;;;18.90;13.50;;;;;;;12.46;75.50;101880.47;5056037;28;20029;-67
2023/05/28 04:09:08;;;;;;;18.30;13.15;;;;;;;12.54;75.21;101877.41;5056042;28;20429;-67
2023/05/28 04:11:36;;;;;;;24.50;12.80;;;;;;;12.48;75.31;101883.06;5071904;28;20024;-66
2023/05/28 04:14:03;;;;;;;21.30;12.87;;;;;;;12.47;75.01;101884.00;5073216;28;20025;-66
2023/05/28 04:16:31;;;;;;;18.63;12.23;;;;;;;12.49;75.51;101885.63;5073665;28;20403;-67
2023/05/28 04:18:56;;;;;;;19.67;14.10;;;;;;;12.60;74.41;101882.41;5071780;28;20051;-67
2023/05/28 04:21:23;;;;;;;24.45;13.35;;;;;;;12.37;75.85;101872.97;5070771;28;20052;-67
2023/05/28 04:23:49;;;;;;;21.65;12.60;;;;;;;12.58;75.34;101889.63;5056274;28;20032;-66
2023/05/28 04:26:16;;;;;;;17.75;13.52;;;;;;;12.39;75.75;101902.25;5053750;28;20029;-67
2023/05/28 04:28:41;;;;;;;21.17;12.48;;;;;;;12.60;75.15;101893.06;5097794;28;20051;-67
2023/05/28 04:31:08;;;;;;;21.58;12.40;;;;;;;12.60;75.72;101892.22;5057273;28;20025;-67
2023/05/28 04:33:33;;;;;;;22.50;13.23;;;;;;;12.48;76.26;101897.28;5068476;28;20341;-66
2023/05/28 04:35:59;;;;;;;21.77;13.00;;;;;;;12.69;75.93;101897.91;5066869;28;20033;-66
2023/05/28 04:38:29;;;;;;;22.15;13.18;;;;;;;12.53;76.72;101899.72;5073519;28;20513;-66
2023/05/28 04:40:54;;;;;;;19.95;12.75;;;;;;;12.79;76.13;101903.59;5072637;28;20032;-66
2023/05/28 04:43:21;;;;;;;21.77;13.32;;;;;;;12.85;75.82;101897.94;5068308;28;20024;-67
2023/05/28 04:45:49;;;;;;;21.65;12.73;;;;;;;12.90;75.78;101911.00;5069756;28;20052;-67
2023/05/28 04:48:15;;;;;;;22.67;12.73;;;;;;;12.92;75.96;101909.97;5101270;28;20506;-67
2023/05/28 04:50:41;;;;;;;21.05;13.35;;;;;;;12.90;76.22;101900.31;5066718;28;20083;-66
2023/05/28 04:53:06;;;;;;;23.10;14.32;;;;;;;12.94;75.90;101909.88;5071329;28;20020;-67
2023/05/28 04:55:32;;;;;;;17.85;13.02;;;;;;;13.02;75.66;101909.47;5063815;28;20043;-66
2023/05/28 04:57:57;;;;;;;22.27;12.43;;;;;;;13.11;76.12;101909.78;5063859;28;20028;-66
2023/05/28 05:00:26;;;;;;;23.30;13.98;;;;;;;13.12;75.94;101910.69;5103347;28;20510;-66
2023/05/28 05:02:52;;;;;;;20.92;12.77;;;;;;;13.16;75.80;101909.53;5063656;28;20052;-66
2023/05/28 05:05:18;;;;;;;24.65;13.75;;;;;;;13.12;75.82;101905.34;5070891;28;20036;-66
2023/05/28 05:07:44;;;;;;;20.90;13.48;;;;;;;13.19;75.72;101907.56;5072799;28;20047;-66
2023/05/28 05:10:10;;;;;;;20.52;12.88;;;;;;;13.15;76.79;101908.69;5071100;28;20174;-66
2023/05/28 05:12:36;;;;;;;20.67;12.77;;;;;;;13.29;75.73;101907.91;5070353;28;20044;-67
2023/05/28 05:15:02;;;;;;;20.65;14.20;;;;;;;13.31;75.97;101910.50;5069524;28;20024;-66
2023/05/28 05:17:28;;;;;;;24.45;14.60;;;;;;;13.42;75.77;101908.09;5055525;28;20041;-67
2023/05/28 05:19:53;;;;;;;23.88;13.55;;;;;;;13.35;76.38;101917.38;5056192;28;20604;-66
2023/05/28 05:22:18;;;;;;;20.83;14.02;;;;;;;13.32;76.89;101914.88;5068370;28;20104;-66
2023/05/28 05:24:50;;;;;;;23.63;13.63;;;;;;;13.38;76.45;101922.56;5069693;28;20039;-67
2023/05/28 05:27:16;;;;;;;22.25;14.05;;;;;;;13.50;75.96;101919.19;5083800;28;20383;-66
2023/05/28 05:29:41;;;;;;;24.02;14.60;;;;;;;13.56;75.90;101923.28;5092326;28;20020;-67
2023/05/28 05:32:09;;;;;;;20.33;13.93;;;;;;;13.58;76.14;101921.41;5074415;28;20505;-66
2023/05/28 05:34:34;;;;;;;21.08;13.52;;;;;;;13.64;76.19;101918.38;5085803;28;20086;-66
2023/05/28 05:37:00;;;;;;;20.65;12.73;;;;;;;13.73;75.42;101911.63;5092569;28;20028;-66
2023/05/28 05:39:25;;;;;;;20.80;13.38;;;;;;;13.82;75.37;101925.31;5091166;28;20024;-66
2023/05/28 05:41:51;;;;;;;22.70;13.65;;;;;;;13.89;75.63;101923.13;5091825;28;20391;-66
2023/05/28 05:44:16;;;;;;;25.35;14.57;;;;;;;13.85;75.66;101927.81;5068678;28;20055;-66
2023/05/28 05:46:42;;;;;;;22.25;13.55;;;;;;;13.93;75.60;101934.50;5072155;28;20020;-67
2023/05/28 05:49:08;;;;;;;19.20;13.85;;;;;;;14.04;75.46;101934.72;5070806;28;20103;-67
2023/05/28 05:51:34;;;;;;;28.63;13.50;;;;;;;14.17;74.77;101930.34;5081988;28;20103;-66
2023/05/28 05:53:59;;;;;;;20.75;13.95;;;;;;;14.22;74.68;101938.09;5071999;28;20024;-67
2023/05/28 05:56:25;;;;;;;26.00;14.50;;;;;;;14.30;74.98;101936.69;5072103;28;20040;-66
2023/05/28 05:58:51;;;;;;;20.27;13.65;;;;;;;14.48;74.36;101937.34;5070594;28;20029;-67
2023/05/28 06:01:17;;;;;;;22.67;13.90;;;;;;;14.47;75.59;101932.09;5108840;28;20031;-67
2023/05/28 06:03:45;;;;;;;19.80;13.50;;;;;;;14.62;73.29;101936.53;5073689;28;20028;-67
2023/05/28 06:06:10;;;;;;;21.92;13.30;;;;;;;14.68;72.79;101925.44;5072175;28;20161;-67
2023/05/28 06:08:36;;;;;;;28.20;14.20;;;;;;;14.81;72.43;101938.06;5076594;28;20521;-66
2023/05/28 06:11:02;;;;;;;22.77;12.90;;;;;;;14.84;71.26;101930.69;5058406;28;20025;-67
2023/05/28 06:13:27;;;;;;;21.88;13.82;;;;;;;14.95;71.92;101930.00;5064064;28;20035;-67
2023/05/28 06:15:53;;;;;;;23.73;12.80;;;;;;;15.01;71.35;101923.38;5066734;28;20033;-67
2023/05/28 06:18:18;;;;;;;20.95;12.93;;;;;;;15.22;70.64;101928.19;5069421;28;20043;-67
2023/05/28 06:20:46;;;;;;;19.83;13.13;;;;;;;15.29;70.52;101934.00;5068784;28;20150;-67
2023/05/28 06:23:12;;;;;;;24.50;13.13;;;;;;;15.41;69.50;101932.34;5066931;28;20445;-67
2023/05/28 06:25:38;;;;;;;19.85;12.73;;;;;;;15.48;69.20;101930.13;5117491;27;20074;-67
2023/05/28 06:28:04;;;;;;;23.30;12.63;;;;;;;15.60;68.93;101929.31;5091946;28;20020;-67
2023/05/28 06:30:29;;;;;;;23.95;12.85;;;;;;;15.73;68.37;101930.22;5070591;28;20039;-67
2023/05/28 06:32:57;;;;;;;25.90;13.90;;;;;;;15.82;68.24;101920.69;5065966;28;20063;-67
2023/05/28 06:35:25;;;;;;;20.05;12.43;;;;;;;15.97;67.06;101926.84;5064593;28;20032;-67
2023/05/28 06:37:52;;;;;;;19.55;11.65;;;;;;;16.08;66.77;101930.50;5103002;28;20021;-67
2023/05/28 06:40:18;;;;;;;19.10;11.02;;;;;;;16.14;66.03;101931.91;5069061;28;20028;-67
2023/05/28 06:42:43;;;;;;;18.35;11.73;;;;;;;16.22;65.55;101918.81;5069465;28;20495;-67
2023/05/28 06:45:09;;;;;;;21.60;12.50;;;;;;;16.31;65.49;101920.84;5069938;28;20529;-67
2023/05/28 06:47:34;;;;;;;21.23;11.60;;;;;;;16.41;64.83;101925.56;5068735;28;20033;-67
2023/05/28 06:50:00;;;;;;;21.20;11.65;;;;;;;16.58;64.07;101922.56;5060894;28;20028;-67
2023/05/28 06:52:27;;;;;;;18.70;11.45;;;;;;;16.62;64.87;101925.88;5066555;28;20049;-67
2023/05/28 06:54:52;;;;;;;21.58;11.88;;;;;;;16.71;63.31;101934.16;5059904;28;20123;-66
2023/05/28 06:57:20;;;;;;;22.15;11.50;;;;;;;16.78;63.35;101922.03;5051334;28;20035;-67
2023/05/28 06:59:46;;;;;;;21.33;11.60;;;;;;;16.91;63.73;101926.50;5049367;28;20771;-67
2023/05/28 07:02:11;;;;;;;19.20;11.32;;;;;;;17.00;63.02;101924.03;5062147;28;20025;-67
2023/05/28 07:04:37;;;;;;;23.48;12.25;;;;;;;17.12;63.29;101932.13;5071015;28;20020;-67
2023/05/28 07:07:03;;;;;;;20.95;11.52;;;;;;;17.29;61.70;101929.06;5068861;28;20024;-68
2023/05/28 07:09:29;;;;;;;18.55;10.85;;;;;;;17.35;61.18;101933.97;5086708;28;20044;-67
2023/05/28 07:11:55;;;;;;;21.65;12.15;;;;;;;17.40;60.85;101915.69;5054685;28;20055;-67
2023/05/28 07:14:23;;;;;;;21.05;10.90;;;;;;;17.58;60.90;101929.56;5070682;28;20042;-67
2023/05/28 07:16:49;;;;;;;21.55;11.52;;;;;;;17.71;60.10;101935.75;5069754;28;20028;-67
2023/05/28 07:19:14;;;;;;;20.42;10.48;;;;;;;17.85;60.03;101933.88;5072324;28;20533;-67
2023/05/28 07:21:42;;;;;;;17.80;10.02;;;;;;;18.01;60.30;101933.56;5087495;28;20719;-67
2023/05/28 07:24:08;;;;;;;17.77;10.88;;;;;;;18.03;60.32;101939.66;5067132;28;20514;-67
2023/05/28 07:26:33;;;;;;;20.40;10.63;;;;;;;18.20;59.60;101927.59;5072751;28;20051;-66
2023/05/28 07:29:00;;;;;;;20.45;10.68;;;;;;;18.40;59.45;101945.75;5080901;28;20020;-66
2023/05/28 07:31:26;;;;;;;18.38;11.07;;;;;;;18.39;60.82;101944.91;5078454;28;20032;-64
2023/05/28 07:33:54;;;;;;;20.23;11.00;;;;;;;18.54;58.82;101948.22;5063105;28;20418;-63
2023/05/28 07:36:20;;;;;;;14.90;9.83;;;;;;;18.52;58.14;101942.09;5056736;28;20025;-63
2023/05/28 07:38:45;;;;;;;17.02;9.60;;;;;;;18.39;57.94;101917.09;5073523;28;20352;-63
2023/05/28 07:41:11;;;;;;;16.15;9.82;;;;;;;18.63;56.93;101940.38;5066569;28;20031;-63
2023/05/28 07:43:36;;;;;;;15.15;8.65;;;;;;;18.55;56.76;101928.34;5090193;28;20025;-63
2023/05/28 07:46:01;;;;;;;19.50;9.00;;;;;;;18.49;55.47;101939.63;5052930;28;20171;-63
2023/05/28 07:48:27;;;;;;;19.05;9.30;;;;;;;18.49;56.04;101949.56;5065842;28;20024;-63
2023/05/28 07:50:53;;;;;;;19.10;9.60;;;;;;;18.55;55.08;101931.06;5073947;28;20143;-63
2023/05/28 07:53:18;;;;;;;22.42;10.57;;;;;;;18.61;56.09;101938.66;5071730;28;20064;-63
2023/05/28 07:55:44;;;;;;;18.20;9.93;;;;;;;18.80;56.42;101926.44;5104391;28;20025;-63
2023/05/28 07:58:11;;;;;;;20.65;9.77;;;;;;;18.83;55.64;101943.22;5073494;28;20063;-63
2023/05/28 08:00:37;;;;;;;16.52;9.20;;;;;;;18.95;54.31;101946.78;5070961;28;20032;-63
2023/05/28 08:03:03;;;;;;;17.88;9.07;;;;;;;18.98;54.68;101941.13;5072488;28;20024;-64
2023/05/28 08:05:28;;;;;;;17.38;9.13;;;;;;;19.02;56.84;101939.03;5074104;28;20399;-64
2023/05/28 08:07:54;;;;;;;14.35;8.55;;;;;;;19.22;54.84;101942.78;5074128;28;20059;-63
2023/05/28 08:10:19;;;;;;;19.42;9.15;;;;;;;19.25;54.88;101945.25;5073898;28;20016;-63
2023/05/28 08:12:47;;;;;;;21.40;10.65;;;;;;;19.39;56.90;101941.41;5073697;28;20032;-63
2023/05/28 08:15:12;;;;;;;18.08;9.23;;;;;;;19.49;53.51;101948.59;5072418;28;20034;-64
2023/05/28 08:17:38;;;;;;;32.00;11.85;;;;;;;19.42;56.63;101941.16;5072550;28;20174;-64
2023/05/28 08:20:04;;;;;;;23.23;11.35;;;;;;;19.39;57.70;101939.56;5072426;28;20032;-64
2023/05/28 08:22:29;;;;;;;63.72;13.68;;;;;;;19.32;58.45;101927.56;5073113;28;20133;-63
2023/05/28 08:24:55;;;;;;;27.92;11.70;;;;;;;19.53;57.54;101941.13;5065565;28;20478;-64
2023/05/28 08:27:20;;;;;;;57.97;11.77;;;;;;;19.49;57.07;101934.25;5072431;28;20024;-64
2023/05/28 08:29:48;;;;;;;21.58;10.85;;;;;;;19.57;58.02;101941.72;5052231;28;20023;-63
2023/05/28 08:32:16;;;;;;;45.05;12.50;;;;;;;19.60;58.54;101941.47;5065444;28;20029;-63
2023/05/28 08:34:42;;;;;;;103.38;15.40;;;;;;;19.64;57.32;101935.66;5070934;28;20480;-64
2023/05/28 08:37:08;;;;;;;78.15;13.98;;;;;;;19.61;56.70;101929.66;5073038;28;20032;-69
2023/05/28 08:39:33;;;;;;;27.58;11.98;;;;;;;19.74;57.17;101942.03;5073494;28;20016;-69
2023/05/28 08:41:59;;;;;;;42.47;12.57;;;;;;;19.90;57.56;101938.88;5073001;28;20047;-72
2023/05/28 08:44:24;;;;;;;21.13;10.52;;;;;;;19.90;55.13;101935.34;5071156;28;20394;-69
2023/05/28 08:46:51;;;;;;;21.73;11.23;;;;;;;19.92;55.59;101934.22;5072288;28;20024;-71
2023/05/28 08:49:20;;;;;;;19.75;11.38;;;;;;;20.08;55.33;101925.66;5070728;28;20376;-71
2023/05/28 08:51:53;;;;;;;22.05;11.38;;;;;;;20.40;54.93;101936.34;5053206;28;20125;-70
2023/05/28 08:54:18;;;;;;;21.30;11.38;;;;;;;20.50;55.23;101927.44;5058103;28;20046;-68
2023/05/28 08:56:44;;;;;;;17.60;9.90;;;;;;;20.56;55.80;101924.22;5072874;28;20107;-70
2023/05/28 08:59:12;;;;;;;18.73;10.18;;;;;;;20.69;53.31;101916.75;5069956;28;20032;-71
2023/05/28 09:01:38;;;;;;;18.20;9.57;;;;;;;20.79;53.32;101924.88;5089289;28;20448;-68
2023/05/28 09:04:04;;;;;;;19.95;10.38;;;;;;;21.10;54.05;101918.44;5072850;28;20111;-72
2023/05/28 09:06:31;;;;;;;20.60;10.13;;;;;;;21.18;52.25;101911.44;5072640;28;20099;-70
2023/05/28 09:08:57;;;;;;;15.73;7.85;;;;;;;21.18;49.88;101911.44;5072781;28;20024;-71
2023/05/28 09:11:23;;;;;;;15.98;7.57;;;;;;;21.33;49.80;101910.06;5071088;28;20028;-70
2023/05/28 09:13:49;;;;;;;14.02;6.82;;;;;;;21.16;46.27;101906.19;5071008;28;20059;-64
2023/05/28 09:16:24;;;;;;;15.80;7.03;;;;;;;21.22;47.14;101910.19;5091801;28;20074;-63
2023/05/28 09:19:02;;;;;;;13.95;6.57;;;;;;;21.23;46.89;101917.31;5077155;28;20028;-63
2023/05/28 09:21:31;;;;;;;17.08;7.40;;;;;;;21.38;48.28;101907.81;5071430;28;20166;-63
2023/05/28 09:23:58;;;;;;;15.40;6.63;;;;;;;21.34;45.59;101903.66;5071263;28;20017;-63
2023/05/28 09:26:28;;;;;;;12.10;6.38;;;;;;;21.65;47.37;101917.97;5072136;28;20029;-68
2023/05/28 09:28:53;;;;;;;15.48;6.18;;;;;;;21.70;46.83;101914.81;5070556;28;20020;-67
2023/05/28 09:31:19;;;;;;;15.90;6.43;;;;;;;21.65;45.56;101908.94;5069810;28;20398;-68
2023/05/28 09:33:45;;;;;;;13.80;6.53;;;;;;;21.80;45.39;101912.97;5084627;28;20024;-68
2023/05/28 09:36:11;;;;;;;14.70;6.93;;;;;;;21.52;44.92;101911.97;5052613;28;20104;-67
2023/05/28 09:38:40;;;;;;;13.10;6.22;;;;;;;21.64;46.17;101912.66;5052294;28;20108;-69
2023/05/28 09:41:20;;;;;;;12.35;7.13;;;;;;;21.57;46.45;101906.97;5063006;28;20483;-66
2023/05/28 09:43:46;;;;;;;15.15;6.55;;;;;;;21.76;46.29;101908.81;5087199;28;20528;-67
2023/05/28 09:46:12;;;;;;;15.00;6.20;;;;;;;21.78;45.48;101910.38;5070483;28;20017;-69
2023/05/28 09:48:37;;;;;;;12.27;5.93;;;;;;;21.78;43.21;101877.88;5077652;28;20020;-71
2023/05/28 09:51:04;;;;;;;14.02;5.55;;;;;;;21.86;43.31;101917.78;5085553;28;20511;-69
2023/05/28 09:53:36;;;;;;;13.35;6.63;;;;;;;21.80;43.64;101912.97;5071856;28;20024;-67
2023/05/28 09:56:02;;;;;;;11.27;5.65;;;;;;;21.72;41.62;101904.69;5070126;28;20546;-68
2023/05/28 09:58:36;;;;;;;12.73;6.10;;;;;;;21.76;42.24;101903.41;5071844;28;20618;-70
2023/05/28 10:01:14;;;;;;;12.27;5.97;;;;;;;21.89;43.61;101900.41;5069286;28;20035;-67
2023/05/28 10:03:43;;;;;;;12.00;6.35;;;;;;;21.90;42.65;101902.09;5070863;28;20020;-67
2023/05/28 10:06:23;;;;;;;12.38;5.63;;;;;;;21.95;43.44;101903.38;5071981;28;20035;-68
2023/05/28 10:08:51;;;;;;;12.98;5.78;;;;;;;21.89;43.42;101900.41;5070965;28;20055;-75
2023/05/28 10:11:26;;;;;;;12.95;5.57;;;;;;;21.98;43.18;101900.38;5071501;28;20127;-73
2023/05/28 10:13:54;;;;;;;11.68;5.55;;;;;;;22.04;43.79;101907.06;5069800;28;20025;-73
2023/05/28 10:16:20;;;;;;;14.00;5.53;;;;;;;22.14;42.14;101880.78;5071751;28;20039;-73
2023/05/28 10:18:48;;;;;;;15.35;5.80;;;;;;;22.11;42.02;101907.34;5050740;28;20036;-72
2023/05/28 10:21:14;;;;;;;24.10;6.00;;;;;;;22.28;41.90;101906.59;5067414;28;20028;-67
2023/05/28 10:23:44;;;;;;;9.90;5.53;;;;;;;22.13;42.40;101914.31;5070125;28;20273;-67
2023/05/28 10:26:10;;;;;;;18.33;6.93;;;;;;;22.22;41.89;101908.03;5067208;28;20024;-66
2023/05/28 10:28:36;;;;;;;26.33;5.50;;;;;;;22.28;43.02;101912.03;5070956;28;20498;-66
2023/05/28 10:31:07;;;;;;;15.68;6.28;;;;;;;22.30;40.82;101904.63;5068601;28;20024;-66
2023/05/28 10:33:43;;;;;;;17.05;5.82;;;;;;;22.27;42.10;101901.34;5070378;28;20032;-66
2023/05/28 10:36:14;;;;;;;19.10;5.82;;;;;;;22.28;41.08;101913.88;5070132;28;20123;-66
2023/05/28 10:38:44;;;;;;;17.92;5.97;;;;;;;22.37;40.47;101908.44;5071568;28;20016;-66
2023/05/28 10:41:10;;;;;;;16.17;6.05;;;;;;;22.53;41.36;101906.94;5070284;28;20055;-66
2023/05/28 10:43:38;;;;;;;12.40;6.00;;;;;;;22.55;41.42;101900.38;5071624;28;20056;-66
2023/05/28 10:46:28;;;;;;;19.90;5.35;;;;;;;22.71;42.09;101907.88;5069223;28;20036;-66
2023/05/28 10:49:12;;;;;;;16.40;5.25;;;;;;;22.76;38.96;101907.41;5070251;28;20056;-66
2023/05/28 10:51:51;;;;;;;16.70;5.50;;;;;;;22.78;40.80;101905.41;5101324;28;20518;-66
2023/05/28 10:54:29;;;;;;;25.98;6.13;;;;;;;22.85;40.73;101914.63;5071886;28;20020;-70
2023/05/28 10:57:14;;;;;;;15.98;5.85;;;;;;;22.87;40.30;101907.22;5075366;28;20373;-69
2023/05/28 10:59:51;;;;;;;12.50;5.45;;;;;;;22.84;39.85;101902.09;5071022;28;20056;-68
2023/05/28 11:02:25;;;;;;;13.77;5.65;;;;;;;22.63;39.68;101905.06;5102962;28;20033;-69
2023/05/28 11:05:00;;;;;;;10.15;5.72;;;;;;;22.52;38.95;101889.81;5074461;28;20032;-69
2023/05/28 11:07:30;;;;;;;10.60;5.80;;;;;;;22.66;40.08;101905.59;5073579;28;20024;-69
2023/05/28 11:09:57;;;;;;;9.35;5.40;;;;;;;22.82;40.10;101904.94;5073126;28;20024;-70